Time;durP1;ratioP1;P1;durP2;ratioP2;P2;SDS_P1;SDS_P2;PMS_P1;PMS_P2;Temp;Humidity;BMP_temperature;BMP_pressure;BME280_temperature;BME280_humidity;BME280_pressure;Samples;Min_cycle;Max_cycle;Signal;HPM_P1;HPM_P2
2022/08/22 00:02:04;;;;;;;2.37;2.10;;;15.10;99.90;;;;;;8346351;28;20212;-68
2022/08/22 00:06:17;;;;;;;2.57;2.10;;;15.10;99.90;;;;;;8350969;28;20193;-67
2022/08/22 00:10:43;;;;;;;5.43;2.40;;;15.10;99.90;;;;;;8345863;28;20257;-67
2022/08/22 00:14:50;;;;;;;2.73;2.03;;;15.10;99.90;;;;;;8352148;28;20256;-69
2022/08/22 00:19:04;;;;;;;3.60;2.60;;;15.10;99.90;;;;;;8346509;28;20206;-68
2022/08/22 00:23:12;;;;;;;5.50;2.80;;;15.00;99.90;;;;;;8343026;28;20209;-68
2022/08/22 00:27:25;;;;;;;3.17;2.90;;;15.00;99.90;;;;;;8349010;28;20216;-68
2022/08/22 00:31:35;;;;;;;4.00;2.93;;;14.90;99.90;;;;;;8345902;28;20205;-68
2022/08/22 00:35:43;;;;;;;3.93;2.77;;;14.80;99.90;;;;;;8346669;28;20227;-68
2022/08/22 00:40:07;;;;;;;3.40;2.53;;;14.80;99.90;;;;;;8353932;28;20191;-68
2022/08/22 00:44:50;;;;;;;5.57;3.40;;;14.80;99.90;;;;;;8348837;28;20170;-69
2022/08/22 00:49:22;;;;;;;4.43;3.30;;;14.80;99.90;;;;;;8340875;28;20190;-67
2022/08/22 00:53:49;;;;;;;4.17;3.20;;;14.80;99.90;;;;;;8347103;28;20229;-68
2022/08/22 00:58:13;;;;;;;3.53;3.23;;;14.80;99.90;;;;;;8364037;28;20182;-68
2022/08/22 01:02:50;;;;;;;4.37;3.30;;;14.90;99.90;;;;;;8346454;28;20208;-71
2022/08/22 01:07:28;;;;;;;5.67;3.37;;;14.80;99.90;;;;;;8348804;28;20261;-67
2022/08/22 01:11:54;;;;;;;7.40;3.27;;;14.80;99.90;;;;;;8346324;28;20232;-67
2022/08/22 01:16:08;;;;;;;4.87;3.43;;;14.90;99.90;;;;;;8338886;28;20206;-68
2022/08/22 01:20:23;;;;;;;4.70;3.10;;;14.90;99.90;;;;;;8348521;28;20328;-68
2022/08/22 01:24:30;;;;;;;3.33;2.93;;;14.90;99.90;;;;;;8341496;28;20250;-68
2022/08/22 01:29:05;;;;;;;3.23;2.80;;;14.90;99.90;;;;;;8341048;28;20461;-68
2022/08/22 01:33:15;;;;;;;4.67;3.13;;;14.90;99.90;;;;;;8341944;28;20276;-67
2022/08/22 01:37:43;;;;;;;6.03;3.23;;;14.90;99.90;;;;;;8346566;28;20220;-67
2022/08/22 01:42:16;;;;;;;4.77;3.20;;;14.90;99.90;;;;;;8349205;28;20221;-68
2022/08/22 01:46:38;;;;;;;3.67;2.80;;;14.80;99.90;;;;;;8345117;28;20195;-67
2022/08/22 01:50:42;;;;;;;4.70;3.57;;;14.80;99.90;;;;;;8353240;28;20189;-67
2022/08/22 01:54:59;;;;;;;4.30;3.90;;;14.80;99.90;;;;;;8368007;28;20281;-67
2022/08/22 01:59:04;;;;;;;6.37;3.97;;;14.80;99.90;;;;;;8355578;28;20185;-67
2022/08/22 02:03:05;;;;;;;5.43;3.87;;;14.70;99.90;;;;;;8349920;28;20211;-68
2022/08/22 02:07:19;;;;;;;6.63;3.73;;;14.70;99.90;;;;;;8352104;28;20178;-72
2022/08/22 02:11:32;;;;;;;6.00;3.63;;;14.70;99.90;;;;;;8351320;28;20224;-67
2022/08/22 02:15:39;;;;;;;4.83;3.67;;;14.70;99.90;;;;;;8345080;28;20201;-69
2022/08/22 02:20:17;;;;;;;6.20;3.80;;;14.60;99.90;;;;;;8350085;28;20193;-68
2022/08/22 02:24:27;;;;;;;4.57;3.83;;;14.60;99.90;;;;;;8349274;28;20209;-67
2022/08/22 02:28:47;;;;;;;5.90;3.90;;;14.60;99.90;;;;;;8341359;28;20185;-67
2022/08/22 02:32:54;;;;;;;6.83;3.90;;;14.50;99.90;;;;;;8351263;28;20297;-67
2022/08/22 02:37:13;;;;;;;6.90;4.03;;;14.50;99.90;;;;;;8351703;28;20271;-67
2022/08/22 02:41:23;;;;;;;6.70;4.30;;;14.50;99.90;;;;;;8356630;28;20277;-66
2022/08/22 02:45:37;;;;;;;5.43;4.30;;;14.50;99.90;;;;;;8342651;28;20194;-67
2022/08/22 02:49:58;;;;;;;5.00;4.40;;;14.50;99.90;;;;;;8354608;28;20178;-68
2022/08/22 02:54:25;;;;;;;6.07;4.27;;;14.50;99.90;;;;;;8349561;28;20182;-67
2022/08/22 02:58:48;;;;;;;8.37;4.60;;;14.50;99.90;;;;;;8352206;28;20205;-67
2022/08/22 03:02:58;;;;;;;5.13;4.20;;;14.50;99.90;;;;;;8365372;28;20205;-67
2022/08/22 03:07:02;;;;;;;8.63;4.53;;;14.50;99.90;;;;;;8366120;28;20201;-67
2022/08/22 03:11:28;;;;;;;5.07;4.10;;;14.50;99.90;;;;;;8349219;28;20192;-68
2022/08/22 03:15:47;;;;;;;6.20;4.43;;;14.50;99.90;;;;;;8350284;28;20285;-69
2022/08/22 03:19:59;;;;;;;11.73;4.83;;;14.50;99.90;;;;;;8380003;28;20224;-67
2022/08/22 03:24:08;;;;;;;4.47;4.03;;;14.50;99.90;;;;;;8349563;28;20186;-68
2022/08/22 03:28:17;;;;;;;7.00;5.20;;;14.50;99.90;;;;;;8351215;28;20222;-67
2022/08/22 03:32:44;;;;;;;4.33;3.90;;;14.50;99.90;;;;;;8364635;28;20189;-68
2022/08/22 03:37:06;;;;;;;4.63;3.80;;;14.50;99.90;;;;;;8358045;28;20178;-68
2022/08/22 03:41:37;;;;;;;6.07;4.33;;;14.50;99.90;;;;;;8352663;28;20203;-68
2022/08/22 03:46:34;;;;;;;4.23;3.83;;;14.50;99.90;;;;;;8380232;28;20265;-74
2022/08/22 03:50:49;;;;;;;5.30;4.50;;;14.50;99.90;;;;;;8333984;28;20265;-67
2022/08/22 03:55:11;;;;;;;5.20;4.40;;;14.50;99.90;;;;;;8350206;28;20190;-68
2022/08/22 03:59:55;;;;;;;6.80;4.73;;;14.50;99.90;;;;;;8364844;28;20186;-68
2022/08/22 04:04:23;;;;;;;5.00;4.20;;;14.50;99.90;;;;;;8351428;28;20304;-67
2022/08/22 04:08:24;;;;;;;5.00;4.03;;;14.50;99.90;;;;;;8367322;28;20185;-67
2022/08/22 04:12:46;;;;;;;4.97;3.93;;;14.50;99.90;;;;;;8349315;28;20315;-68
2022/08/22 04:17:10;;;;;;;4.77;4.00;;;14.50;99.90;;;;;;8354053;28;20232;-68
2022/08/22 04:21:16;;;;;;;3.90;3.50;;;14.60;99.90;;;;;;8341828;28;20217;-68
2022/08/22 04:25:24;;;;;;;4.87;4.37;;;14.60;99.90;;;;;;8351807;28;20196;-69
2022/08/22 04:30:00;;;;;;;5.83;4.07;;;14.70;99.90;;;;;;8363316;28;20182;-68
2022/08/22 04:34:30;;;;;;;4.63;3.90;;;14.70;99.90;;;;;;8348689;28;20266;-68
2022/08/22 04:39:09;;;;;;;5.43;3.70;;;14.80;99.90;;;;;;8357504;28;20197;-68
2022/08/22 04:43:21;;;;;;;8.53;5.37;;;14.80;99.90;;;;;;8381724;28;20205;-68
2022/08/22 04:48:14;;;;;;;5.90;4.70;;;14.80;99.90;;;;;;8348222;28;20193;-69
2022/08/22 04:52:34;;;;;;;6.33;4.70;;;14.80;99.90;;;;;;8344960;28;20274;-68
2022/08/22 04:56:59;;;;;;;6.90;4.53;;;14.80;99.90;;;;;;8379735;28;20192;-69
2022/08/22 05:01:05;;;;;;;5.70;4.83;;;14.80;99.90;;;;;;8345653;28;20213;-68
2022/08/22 05:05:18;;;;;;;7.20;5.33;;;14.90;99.90;;;;;;8348350;28;20174;-68
2022/08/22 05:09:26;;;;;;;5.60;4.07;;;14.90;99.90;;;;;;8355128;28;20186;-68
2022/08/22 05:13:41;;;;;;;6.33;4.90;;;15.00;99.90;;;;;;8351352;28;20213;-68
2022/08/22 05:17:45;;;;;;;6.70;5.00;;;15.00;99.90;;;;;;8347862;28;20206;-68
2022/08/22 05:21:49;;;;;;;4.40;4.00;;;15.00;99.90;;;;;;8347441;28;20205;-68
2022/08/22 05:25:53;;;;;;;8.03;5.00;;;15.10;99.90;;;;;;8350780;28;20292;-67
2022/08/22 05:30:08;;;;;;;6.77;4.70;;;15.20;99.90;;;;;;8347087;28;20180;-68
2022/08/22 05:34:15;;;;;;;4.70;3.83;;;15.20;99.90;;;;;;8367112;28;20189;-68
2022/08/22 05:38:21;;;;;;;5.60;4.03;;;15.40;99.90;;;;;;8344628;28;20335;-68
2022/08/22 05:42:35;;;;;;;7.13;4.83;;;15.40;99.90;;;;;;8346371;28;20214;-69
2022/08/22 05:46:43;;;;;;;6.30;4.83;;;15.50;99.90;;;;;;8345713;28;20304;-68
2022/08/22 05:50:48;;;;;;;5.93;5.33;;;15.60;99.90;;;;;;8348632;28;20268;-68
2022/08/22 05:55:01;;;;;;;8.00;5.27;;;15.50;99.90;;;;;;8345852;28;20182;-69
2022/08/22 05:59:13;;;;;;;6.60;5.90;;;15.60;99.90;;;;;;8376842;28;20245;-68
2022/08/22 06:03:51;;;;;;;6.77;5.47;;;15.60;99.90;;;;;;8346594;28;20300;-69
2022/08/22 06:07:59;;;;;;;7.00;5.27;;;15.60;99.90;;;;;;8347299;28;20253;-70
2022/08/22 06:12:33;;;;;;;5.77;5.07;;;15.70;99.90;;;;;;8380902;28;20210;-69
2022/08/22 06:16:55;;;;;;;8.43;5.70;;;15.70;99.90;;;;;;8379887;28;20296;-70
2022/08/22 06:21:02;;;;;;;8.20;6.33;;;15.80;99.90;;;;;;8379020;28;20198;-70
2022/08/22 06:25:12;;;;;;;6.23;5.63;;;15.70;99.90;;;;;;8378111;28;20224;-69
2022/08/22 06:29:29;;;;;;;7.37;5.57;;;15.70;99.90;;;;;;8348493;28;20305;-72
2022/08/22 06:33:35;;;;;;;6.97;5.70;;;15.70;99.90;;;;;;8347393;28;20186;-69
2022/08/22 06:37:44;;;;;;;8.37;4.87;;;15.70;99.90;;;;;;8356293;28;20266;-69
2022/08/22 06:42:10;;;;;;;6.80;5.00;;;15.60;99.90;;;;;;8351795;28;20225;-69
2022/08/22 06:46:15;;;;;;;7.40;4.57;;;15.60;99.90;;;;;;8354462;28;20178;-69
2022/08/22 06:50:32;;;;;;;7.73;4.20;;;15.60;99.90;;;;;;8348953;28;20269;-69
2022/08/22 06:54:36;;;;;;;4.50;3.57;;;15.60;99.90;;;;;;8349462;28;20177;-69
2022/08/22 06:58:43;;;;;;;5.07;4.30;;;15.60;99.90;;;;;;8353129;28;20186;-69
2022/08/22 07:02:48;;;;;;;7.23;4.47;;;15.60;99.90;;;;;;8353408;28;20266;-70
2022/08/22 07:06:50;;;;;;;5.43;4.10;;;15.60;99.90;;;;;;8367835;28;20190;-69
2022/08/22 07:11:26;;;;;;;4.80;4.37;;;15.50;99.90;;;;;;8350487;28;20190;-68
2022/08/22 07:15:46;;;;;;;8.77;4.43;;;15.50;99.90;;;;;;8328776;28;20201;-69
2022/08/22 07:20:22;;;;;;;4.90;4.50;;;15.60;99.90;;;;;;8370355;28;20209;-72
2022/08/22 07:24:28;;;;;;;6.50;4.43;;;15.70;99.90;;;;;;8346497;28;20193;-69
2022/08/22 07:28:37;;;;;;;5.60;4.57;;;15.70;99.90;;;;;;8343481;28;20607;-69
2022/08/22 07:33:01;;;;;;;5.83;4.30;;;15.80;99.90;;;;;;8351999;28;20181;-69
2022/08/22 07:37:10;;;;;;;6.80;4.23;;;15.70;99.90;;;;;;8381657;28;20276;-70
2022/08/22 07:41:44;;;;;;;6.40;3.97;;;15.70;99.90;;;;;;8348637;28;20225;-70
2022/08/22 07:45:54;;;;;;;5.93;3.27;;;15.70;99.90;;;;;;8351825;28;20182;-70
2022/08/22 07:50:06;;;;;;;4.60;3.40;;;15.80;99.90;;;;;;8353580;28;20665;-70
2022/08/22 07:54:18;;;;;;;3.77;3.37;;;15.90;99.90;;;;;;8349158;28;20197;-70
2022/08/22 07:58:22;;;;;;;4.90;3.23;;;16.10;99.90;;;;;;8351641;28;20297;-69
2022/08/22 08:02:24;;;;;;;4.23;3.40;;;16.20;99.90;;;;;;8383613;28;20220;-69
2022/08/22 08:06:30;;;;;;;3.90;3.40;;;16.40;99.90;;;;;;8351761;28;20193;-70
2022/08/22 08:10:35;;;;;;;5.03;3.10;;;16.50;99.90;;;;;;8353580;28;20186;-69
2022/08/22 08:14:40;;;;;;;3.17;2.60;;;16.60;99.90;;;;;;8343676;28;20264;-69
2022/08/22 08:18:42;;;;;;;3.27;2.80;;;16.50;99.90;;;;;;8352938;28;20202;-69
2022/08/22 08:22:44;;;;;;;3.40;2.60;;;16.50;99.90;;;;;;8346984;28;20399;-70
2022/08/22 08:31:38;;;;;;;4.73;2.80;;;16.40;99.90;;;;;;8349869;28;20196;-70
2022/08/22 08:35:42;;;;;;;4.87;2.93;;;16.40;99.90;;;;;;8346818;28;20197;-70
2022/08/22 08:39:49;;;;;;;4.33;2.37;;;16.50;99.90;;;;;;8353088;28;20253;-69
2022/08/22 08:44:11;;;;;;;3.73;2.40;;;16.40;99.90;;;;;;8363290;28;20734;-75
2022/08/22 08:48:26;;;;;;;3.10;2.77;;;16.40;99.90;;;;;;8364422;28;20178;-69
2022/08/22 08:52:45;;;;;;;4.83;2.60;;;16.30;99.90;;;;;;8359565;28;20598;-68
2022/08/22 08:57:12;;;;;;;5.70;2.80;;;16.30;99.90;;;;;;8359981;28;20284;-70
2022/08/22 09:01:43;;;;;;;4.33;3.30;;;16.30;99.90;;;;;;8343381;28;20305;-66
2022/08/22 09:06:10;;;;;;;5.13;3.17;;;16.40;99.90;;;;;;8340402;28;20193;-69
2022/08/22 09:10:37;;;;;;;5.17;3.60;;;16.30;99.90;;;;;;8342711;28;20205;-69
2022/08/22 09:14:59;;;;;;;5.23;3.70;;;16.40;99.90;;;;;;8357635;28;20220;-68
2022/08/22 09:19:26;;;;;;;5.50;3.57;;;16.50;99.90;;;;;;8349802;28;20303;-68
2022/08/22 09:23:51;;;;;;;6.00;3.43;;;16.40;99.90;;;;;;8347406;28;20210;-69
2022/08/22 09:28:10;;;;;;;5.57;3.77;;;16.50;99.90;;;;;;8340041;28;20209;-69
2022/08/22 09:32:16;;;;;;;6.73;3.73;;;16.60;99.90;;;;;;8346493;28;20518;-69
2022/08/22 09:36:19;;;;;;;3.87;2.97;;;16.80;99.90;;;;;;8376123;28;20190;-69
2022/08/22 09:40:34;;;;;;;4.40;3.40;;;16.90;99.90;;;;;;8348715;28;20280;-69
2022/08/22 09:44:54;;;;;;;5.07;3.60;;;16.90;99.90;;;;;;8345383;28;20183;-70
2022/08/22 09:49:07;;;;;;;5.37;3.57;;;16.90;99.90;;;;;;8347019;28;20178;-69
2022/08/22 09:53:20;;;;;;;4.73;3.83;;;17.00;99.90;;;;;;8348687;28;20195;-69
2022/08/22 09:57:46;;;;;;;6.23;4.20;;;16.90;99.90;;;;;;8347764;28;20267;-69
2022/08/22 10:02:23;;;;;;;5.10;3.50;;;16.80;99.90;;;;;;8361727;28;20210;-70
2022/08/22 10:06:29;;;;;;;5.83;4.20;;;16.80;99.90;;;;;;8348452;28;20239;-69
2022/08/22 10:10:30;;;;;;;7.90;4.20;;;16.70;99.90;;;;;;8353534;28;20208;-69
2022/08/22 10:15:03;;;;;;;6.33;4.17;;;16.80;99.90;;;;;;8354808;28;20209;-70
2022/08/22 10:19:07;;;;;;;6.43;4.20;;;16.80;99.90;;;;;;8352855;28;20440;-70
2022/08/22 10:23:43;;;;;;;9.70;4.83;;;16.80;99.90;;;;;;8351715;28;20209;-69
2022/08/22 10:28:18;;;;;;;4.90;4.03;;;16.70;99.90;;;;;;8353660;28;20328;-69
2022/08/22 10:32:40;;;;;;;6.77;5.23;;;16.70;99.90;;;;;;8355355;28;20190;-70
2022/08/22 10:36:44;;;;;;;9.43;5.33;;;16.80;99.90;;;;;;8348894;28;20190;-69
2022/08/22 10:41:12;;;;;;;7.20;5.17;;;16.80;99.90;;;;;;8352287;28;20206;-69
2022/08/22 10:45:28;;;;;;;7.40;5.00;;;16.80;99.90;;;;;;8351670;28;20186;-68
2022/08/22 10:49:48;;;;;;;7.33;4.93;;;16.80;99.90;;;;;;8361505;28;20186;-69
2022/08/22 10:54:33;;;;;;;6.63;4.93;;;16.90;99.90;;;;;;8372310;28;20197;-70
2022/08/22 10:58:47;;;;;;;6.53;4.93;;;16.80;99.90;;;;;;8366279;28;20269;-68
2022/08/22 11:03:06;;;;;;;7.33;5.13;;;16.80;99.90;;;;;;8349340;28;20220;-68
2022/08/22 11:07:19;;;;;;;7.07;5.53;;;16.70;99.90;;;;;;8351293;28;20182;-69
2022/08/22 11:11:36;;;;;;;9.07;5.70;;;16.70;99.90;;;;;;8365675;28;20301;-68
2022/08/22 11:15:55;;;;;;;10.17;6.03;;;16.70;99.90;;;;;;8349926;28;20202;-67
2022/08/22 11:20:18;;;;;;;6.43;5.10;;;16.70;99.90;;;;;;8353420;28;20181;-68
2022/08/22 11:24:57;;;;;;;7.27;5.43;;;16.80;99.90;;;;;;8354141;28;20212;-68
2022/08/22 11:29:13;;;;;;;7.57;5.20;;;16.80;99.90;;;;;;8353214;28;20189;-69
2022/08/22 11:33:17;;;;;;;8.90;5.87;;;16.80;99.90;;;;;;8384901;28;20213;-70
2022/08/22 11:37:47;;;;;;;8.00;5.40;;;16.80;99.90;;;;;;8342968;28;20189;-69
2022/08/22 11:41:53;;;;;;;9.83;5.43;;;16.70;99.90;;;;;;8380360;28;20222;-69
2022/08/22 11:45:58;;;;;;;6.57;5.50;;;16.60;99.90;;;;;;8365569;28;20190;-68
2022/08/22 11:50:14;;;;;;;7.57;5.57;;;16.50;99.90;;;;;;8362816;28;20186;-68
2022/08/22 11:54:24;;;;;;;9.83;5.73;;;16.50;99.90;;;;;;8381889;28;20273;-67
2022/08/22 11:58:40;;;;;;;8.07;4.90;;;16.40;99.90;;;;;;8348380;28;20189;-67
2022/08/22 12:02:54;;;;;;;7.70;6.30;;;16.40;99.90;;;;;;8363320;28;20259;-68
2022/08/22 12:07:13;;;;;;;9.07;6.50;;;16.40;99.90;;;;;;8354608;28;20178;-67
2022/08/22 12:11:33;;;;;;;7.17;6.50;;;16.40;99.90;;;;;;8349978;28;20202;-68
2022/08/22 12:15:50;;;;;;;7.60;6.07;;;16.40;99.90;;;;;;8347731;28;20197;-68
2022/08/22 12:20:16;;;;;;;5.43;4.20;;;16.50;99.90;;;;;;8346516;28;20186;-68
2022/08/22 12:24:57;;;;;;;5.37;4.60;;;16.60;99.90;;;;;;8343967;28;20201;-72
2022/08/22 12:29:04;;;;;;;6.03;4.17;;;16.60;99.90;;;;;;8343613;28;20201;-68
2022/08/22 12:33:24;;;;;;;4.63;3.40;;;16.70;99.90;;;;;;8349460;28;20198;-67
2022/08/22 12:37:39;;;;;;;5.83;3.93;;;16.50;99.90;;;;;;8352803;28;20201;-69
2022/08/22 12:42:17;;;;;;;4.40;3.43;;;16.30;99.90;;;;;;8364834;28;20281;-68
2022/08/22 12:46:55;;;;;;;5.10;3.63;;;16.20;99.90;;;;;;8347131;28;20213;-69
2022/08/22 12:51:01;;;;;;;5.83;3.97;;;16.10;99.90;;;;;;8348126;28;20197;-68
2022/08/22 12:55:49;;;;;;;4.97;3.70;;;16.10;99.90;;;;;;8347105;28;20185;-70
2022/08/22 12:59:56;;;;;;;4.20;3.80;;;16.10;99.90;;;;;;8301317;28;20282;-70
2022/08/22 13:04:02;;;;;;;5.40;4.20;;;16.10;99.90;;;;;;8321269;28;20233;-70
2022/08/22 13:08:12;;;;;;;4.87;4.13;;;16.10;99.90;;;;;;8363410;28;20216;-69
2022/08/22 13:12:19;;;;;;;5.03;4.53;;;16.10;99.90;;;;;;8346989;28;20197;-69
2022/08/22 13:16:22;;;;;;;6.23;5.37;;;16.00;99.90;;;;;;8350876;28;20212;-69
2022/08/22 13:20:35;;;;;;;6.37;5.03;;;16.00;99.90;;;;;;8348697;28;20196;-69
2022/08/22 13:25:10;;;;;;;6.03;4.90;;;16.10;99.90;;;;;;8347782;28;20246;-68
2022/08/22 13:29:21;;;;;;;7.00;5.33;;;16.00;99.90;;;;;;8347871;28;20196;-69
2022/08/22 13:33:27;;;;;;;7.83;4.90;;;16.00;99.90;;;;;;8346049;28;20236;-69
2022/08/22 13:37:35;;;;;;;6.30;5.20;;;16.00;99.90;;;;;;8347819;28;20186;-68
2022/08/22 13:41:53;;;;;;;9.93;6.17;;;16.00;99.90;;;;;;8363248;28;20309;-68
2022/08/22 13:45:58;;;;;;;11.97;10.40;;;16.00;99.90;;;;;;8354269;28;20209;-68
2022/08/22 13:50:18;;;;;;;5.97;5.27;;;16.00;99.90;;;;;;8366652;28;20178;-68
2022/08/22 13:54:41;;;;;;;10.67;7.20;;;16.00;99.90;;;;;;8355702;28;20185;-67
2022/08/22 13:59:02;;;;;;;7.83;6.30;;;16.10;99.90;;;;;;8370750;28;20185;-69
2022/08/22 14:03:20;;;;;;;6.80;6.10;;;16.10;99.90;;;;;;8351197;28;20232;-69
2022/08/22 14:07:50;;;;;;;10.17;6.73;;;16.10;99.90;;;;;;8352478;28;20182;-68
2022/08/22 14:12:00;;;;;;;6.77;5.00;;;16.20;99.90;;;;;;8353969;28;20242;-69
2022/08/22 14:16:06;;;;;;;7.33;5.00;;;16.20;99.90;;;;;;8383554;28;20210;-69
2022/08/22 14:20:15;;;;;;;8.70;5.20;;;16.20;99.90;;;;;;8351456;28;20376;-69
2022/08/22 14:24:24;;;;;;;8.33;5.47;;;16.30;99.90;;;;;;8354325;28;20221;-68
2022/08/22 14:28:32;;;;;;;5.27;4.43;;;16.30;99.90;;;;;;8353014;28;20478;-68
2022/08/22 14:32:39;;;;;;;10.87;6.73;;;16.30;99.90;;;;;;8353248;28;20182;-69
2022/08/22 14:36:47;;;;;;;8.20;5.40;;;16.30;99.90;;;;;;8350307;28;20217;-68
2022/08/22 14:41:00;;;;;;;6.57;4.87;;;16.30;99.90;;;;;;8351435;28;20206;-69
2022/08/22 14:45:26;;;;;;;6.23;4.80;;;16.30;99.90;;;;;;8389124;28;20273;-69
2022/08/22 14:49:29;;;;;;;6.57;4.80;;;16.30;99.90;;;;;;8353696;28;20189;-69
2022/08/22 14:53:36;;;;;;;7.63;4.83;;;16.20;99.90;;;;;;8346996;28;20201;-70
2022/08/22 14:57:44;;;;;;;4.63;3.30;;;16.30;99.90;;;;;;8350625;28;20284;-68
2022/08/22 15:01:55;;;;;;;8.63;4.70;;;16.30;99.90;;;;;;8359473;28;20301;-68
2022/08/22 15:06:02;;;;;;;7.27;4.03;;;16.30;99.90;;;;;;8351974;28;20281;-69
2022/08/22 15:10:23;;;;;;;5.27;4.03;;;16.20;99.90;;;;;;8368286;28;20235;-68
2022/08/22 15:14:27;;;;;;;4.10;3.47;;;16.20;99.90;;;;;;8346882;28;20209;-70
2022/08/22 15:18:28;;;;;;;3.77;2.70;;;16.20;99.90;;;;;;8351284;28;20256;-69
2022/08/22 15:22:30;;;;;;;4.50;3.13;;;16.20;99.90;;;;;;8351478;28;20210;-70
2022/08/22 15:26:54;;;;;;;4.23;3.17;;;16.20;99.90;;;;;;8351136;28;20236;-69
2022/08/22 15:30:55;;;;;;;3.50;3.13;;;16.30;99.90;;;;;;8350861;28;20233;-69
2022/08/22 15:35:08;;;;;;;6.00;2.70;;;16.30;99.90;;;;;;8347703;28;20288;-68
2022/08/22 15:39:30;;;;;;;5.87;3.17;;;16.30;99.90;;;;;;8349812;28;20182;-68
2022/08/22 15:43:34;;;;;;;5.97;3.23;;;16.20;99.90;;;;;;8345537;28;20212;-69
2022/08/22 15:47:37;;;;;;;4.33;3.30;;;16.20;99.90;;;;;;8349638;28;20178;-68
2022/08/22 15:51:45;;;;;;;3.93;3.50;;;16.20;99.90;;;;;;8347404;28;20186;-70
2022/08/22 15:56:19;;;;;;;3.70;3.00;;;16.20;99.90;;;;;;8380004;28;20277;-68
2022/08/22 16:00:40;;;;;;;3.33;2.80;;;16.20;99.90;;;;;;8351417;28;20174;-69
2022/08/22 16:04:48;;;;;;;3.57;3.20;;;16.10;99.90;;;;;;8366818;28;20189;-68
2022/08/22 16:08:51;;;;;;;5.20;3.67;;;16.00;99.90;;;;;;8365753;28;20190;-69
2022/08/22 16:13:13;;;;;;;4.27;3.07;;;15.90;99.90;;;;;;8361664;28;20206;-69
2022/08/22 16:17:29;;;;;;;4.00;2.87;;;15.80;99.90;;;;;;8356844;28;20209;-68
2022/08/22 16:21:30;;;;;;;3.53;3.00;;;15.80;99.90;;;;;;8349241;28;20217;-68
2022/08/22 16:25:46;;;;;;;5.00;3.60;;;15.80;99.90;;;;;;8350336;28;20186;-68
2022/08/22 16:29:58;;;;;;;4.23;3.73;;;15.70;99.90;;;;;;8347575;28;20204;-67
2022/08/22 16:34:15;;;;;;;4.87;3.20;;;15.70;99.90;;;;;;8383674;28;20186;-68
2022/08/22 16:38:35;;;;;;;5.40;3.47;;;15.70;99.90;;;;;;8362958;28;20186;-69
2022/08/22 16:42:40;;;;;;;5.70;3.83;;;15.70;99.90;;;;;;8346290;28;20228;-69
2022/08/22 16:46:44;;;;;;;5.07;3.27;;;15.70;99.90;;;;;;8347460;28;20182;-69
2022/08/22 16:51:02;;;;;;;3.83;3.03;;;15.70;99.90;;;;;;8346149;28;20193;-70
2022/08/22 16:55:34;;;;;;;5.37;3.87;;;15.70;99.90;;;;;;8341007;28;20185;-67
2022/08/22 16:59:52;;;;;;;4.37;3.67;;;15.70;99.90;;;;;;8377135;28;20193;-67
2022/08/22 17:04:38;;;;;;;9.73;3.80;;;15.70;99.90;;;;;;8346220;28;20221;-68
2022/08/22 17:09:00;;;;;;;5.13;3.30;;;15.70;99.90;;;;;;8324918;28;20190;-69
2022/08/22 17:13:33;;;;;;;6.53;3.83;;;15.70;99.90;;;;;;8347959;28;20220;-68
2022/08/22 17:17:59;;;;;;;4.10;3.20;;;15.70;99.90;;;;;;8323741;28;20213;-67
2022/08/22 17:22:36;;;;;;;7.87;3.30;;;15.70;99.90;;;;;;8364633;28;20279;-69
2022/08/22 17:26:59;;;;;;;7.53;4.00;;;15.70;99.90;;;;;;8349471;28;20243;-68
2022/08/22 17:31:35;;;;;;;3.70;3.23;;;15.70;99.90;;;;;;8344719;28;20193;-68
2022/08/22 17:35:53;;;;;;;7.27;3.93;;;15.70;99.90;;;;;;8346875;28;20189;-67
2022/08/22 17:40:10;;;;;;;3.93;3.57;;;15.70;99.90;;;;;;8381019;28;20182;-68
2022/08/22 17:44:38;;;;;;;5.57;3.70;;;15.70;99.90;;;;;;8349571;28;20213;-69
2022/08/22 17:48:54;;;;;;;4.30;3.60;;;15.70;99.90;;;;;;8343455;28;20215;-67
2022/08/22 17:53:09;;;;;;;5.40;4.00;;;15.70;99.90;;;;;;8380110;28;20197;-67
2022/08/22 17:57:31;;;;;;;8.03;4.23;;;15.70;99.90;;;;;;8345775;28;20185;-69
2022/08/22 18:01:41;;;;;;;7.47;4.20;;;15.70;99.90;;;;;;8345560;28;20364;-69
2022/08/22 18:06:00;;;;;;;6.30;4.37;;;15.70;99.90;;;;;;8344234;28;20232;-69
2022/08/22 18:10:19;;;;;;;5.43;4.30;;;15.70;99.90;;;;;;8353659;28;20189;-69
2022/08/22 18:14:36;;;;;;;6.27;4.60;;;15.70;99.90;;;;;;8344749;28;20202;-72
2022/08/22 18:19:12;;;;;;;5.00;4.57;;;15.70;99.90;;;;;;8346389;28;20260;-70
2022/08/22 18:23:26;;;;;;;7.13;5.67;;;15.70;99.90;;;;;;8345592;28;20627;-68
2022/08/22 18:27:46;;;;;;;10.07;6.53;;;15.70;99.90;;;;;;8350560;28;20186;-70
2022/08/22 18:32:13;;;;;;;11.23;6.13;;;15.70;99.90;;;;;;8356003;28;20213;-69
2022/08/22 18:36:31;;;;;;;8.00;6.23;;;15.60;99.90;;;;;;8349620;28;20181;-68
2022/08/22 18:40:58;;;;;;;6.57;5.83;;;15.60;99.90;;;;;;8369841;28;20296;-68
2022/08/22 18:44:59;;;;;;;7.37;5.77;;;15.60;99.90;;;;;;8359509;28;20186;-69
2022/08/22 18:49:20;;;;;;;7.93;6.27;;;15.60;99.90;;;;;;8350166;28;20190;-69
2022/08/22 18:53:45;;;;;;;8.70;6.87;;;15.60;99.90;;;;;;8350023;28;20181;-67
2022/08/22 18:58:21;;;;;;;7.17;6.10;;;15.50;99.90;;;;;;8347388;28;20285;-68
2022/08/22 19:02:59;;;;;;;8.83;6.50;;;15.60;99.90;;;;;;8349122;28;20241;-68
2022/08/22 19:07:18;;;;;;;7.47;6.27;;;15.50;99.90;;;;;;8353702;28;20182;-68
2022/08/22 19:11:30;;;;;;;9.87;6.97;;;15.50;99.90;;;;;;8343330;28;20212;-70
2022/08/22 19:15:56;;;;;;;13.87;7.50;;;15.50;99.90;;;;;;8350640;28;20206;-69
2022/08/22 19:24:26;;;;;;;8.93;7.37;;;15.50;99.90;;;;;;8350829;28;20216;-69
2022/08/22 19:28:35;;;;;;;8.37;6.70;;;15.50;99.90;;;;;;8342583;28;20202;-69
2022/08/22 19:32:45;;;;;;;8.30;6.90;;;15.50;99.90;;;;;;8366728;28;20190;-69
2022/08/22 19:37:12;;;;;;;12.70;8.07;;;15.40;99.90;;;;;;8345803;28;20247;-69
2022/08/22 19:41:39;;;;;;;8.17;7.17;;;15.50;99.90;;;;;;8341036;28;20206;-69
2022/08/22 19:45:41;;;;;;;8.60;7.27;;;15.50;99.90;;;;;;8352356;28;20185;-68
2022/08/22 19:49:53;;;;;;;10.90;7.23;;;15.50;99.90;;;;;;8350725;28;20212;-68
2022/08/22 19:54:17;;;;;;;6.70;5.83;;;15.50;99.90;;;;;;8349839;28;20284;-68
2022/08/22 19:58:49;;;;;;;10.07;6.30;;;15.50;99.90;;;;;;8350108;28;20619;-69
2022/08/22 20:03:18;;;;;;;7.07;5.37;;;15.40;99.90;;;;;;8350428;28;20292;-69
2022/08/22 20:07:40;;;;;;;8.23;6.10;;;15.40;99.90;;;;;;8351074;28;20181;-69
2022/08/22 20:11:59;;;;;;;6.33;5.20;;;15.40;99.90;;;;;;8365375;28;20247;-69
2022/08/22 20:16:17;;;;;;;6.80;5.70;;;15.40;99.90;;;;;;8351952;28;20206;-69
2022/08/22 20:20:33;;;;;;;6.40;5.40;;;15.40;99.90;;;;;;8351163;28;20186;-69
2022/08/22 20:24:43;;;;;;;9.90;5.30;;;15.40;99.90;;;;;;8366451;28;20217;-69
2022/08/22 20:28:48;;;;;;;13.70;5.53;;;15.40;99.90;;;;;;8341895;28;20594;-69
2022/08/22 20:33:05;;;;;;;6.70;4.47;;;15.40;99.90;;;;;;8347194;28;20190;-69
2022/08/22 20:37:07;;;;;;;7.00;4.73;;;15.40;99.90;;;;;;8382285;28;20186;-69
2022/08/22 20:41:27;;;;;;;6.10;5.03;;;15.40;99.90;;;;;;8352724;28;20205;-69
2022/08/22 20:45:29;;;;;;;6.00;4.23;;;15.40;99.90;;;;;;8344615;28;20235;-68
2022/08/22 20:49:33;;;;;;;9.23;4.87;;;15.30;99.90;;;;;;8361755;28;20276;-68
2022/08/22 20:53:37;;;;;;;9.23;4.47;;;15.30;99.90;;;;;;8345848;28;20185;-69
2022/08/22 20:57:53;;;;;;;5.77;5.10;;;15.30;99.90;;;;;;8345595;28;20210;-77
2022/08/22 21:02:17;;;;;;;9.93;5.17;;;15.30;99.90;;;;;;8360574;28;20209;-69
2022/08/22 21:06:28;;;;;;;9.13;5.10;;;15.30;99.90;;;;;;8346070;28;20231;-69
2022/08/22 21:14:53;;;;;;;6.87;5.47;;;15.20;99.90;;;;;;8348883;28;20285;-69
2022/08/22 21:18:54;;;;;;;8.60;4.67;;;15.20;99.90;;;;;;8347885;28;20197;-69
2022/08/22 21:23:01;;;;;;;7.27;5.23;;;15.20;99.90;;;;;;8348600;28;20395;-70
2022/08/22 21:27:03;;;;;;;8.53;5.80;;;15.20;99.90;;;;;;8344491;28;20218;-69
2022/08/22 21:31:13;;;;;;;9.60;5.37;;;15.20;99.90;;;;;;8347622;28;20185;-68
2022/08/22 21:35:26;;;;;;;10.57;6.17;;;15.20;99.90;;;;;;8349809;28;20288;-69
2022/08/22 21:39:34;;;;;;;7.17;5.20;;;15.20;99.90;;;;;;8346804;28;20766;-69
2022/08/22 21:43:38;;;;;;;7.90;5.77;;;15.20;99.90;;;;;;8346512;28;20216;-69
2022/08/22 21:47:41;;;;;;;10.93;5.80;;;15.20;99.90;;;;;;8350814;28;20175;-69
2022/08/22 21:51:44;;;;;;;7.77;5.10;;;15.20;99.90;;;;;;8348257;28;20189;-68
2022/08/22 21:55:46;;;;;;;8.87;5.60;;;15.20;99.90;;;;;;8351045;28;20243;-69
2022/08/22 21:59:52;;;;;;;12.03;6.13;;;15.20;99.90;;;;;;8352366;28;20235;-69
2022/08/22 22:03:57;;;;;;;6.27;5.30;;;15.20;99.90;;;;;;8354902;28;20212;-70
2022/08/22 22:07:58;;;;;;;11.57;5.53;;;15.20;99.90;;;;;;8335542;28;20189;-70
2022/08/22 22:11:59;;;;;;;8.13;5.40;;;15.30;99.90;;;;;;8354827;28;20209;-70
2022/08/22 22:16:00;;;;;;;6.43;5.73;;;15.20;99.90;;;;;;8354674;28;20267;-67
2022/08/22 22:20:01;;;;;;;9.87;5.90;;;15.20;99.90;;;;;;8356693;28;20186;-68
2022/08/22 22:24:02;;;;;;;5.73;5.13;;;15.20;99.90;;;;;;8354534;28;20271;-69